Time;durP1;ratioP1;P1;durP2;ratioP2;P2;SDS_P1;SDS_P2;PMS_P1;PMS_P2;Temp;Humidity;BMP_temperature;BMP_pressure;BME280_temperature;BME280_humidity;BME280_pressure;Samples;Min_cycle;Max_cycle;Signal;HPM_P1;HPM_P2
2023/10/12 00:02:04;;;;;;;9.57;3.50;;;;;;;11.11;63.60;101097.19;5134730;27;20031;-80
2023/10/12 00:04:41;;;;;;;7.65;3.53;;;;;;;11.02;64.76;101093.03;5142603;27;20027;-81
2023/10/12 00:07:14;;;;;;;8.70;3.30;;;;;;;10.66;66.64;101094.03;5140522;27;20031;-82
2023/10/12 00:09:40;;;;;;;10.25;3.35;;;;;;;10.06;67.66;101080.97;5134526;27;20039;-81
2023/10/12 00:12:08;;;;;;;9.05;4.10;;;;;;;10.44;66.00;101075.41;5135210;27;20038;-81
2023/10/12 00:14:35;;;;;;;7.82;3.38;;;;;;;9.87;67.53;101057.66;5134203;27;20515;-81
2023/10/12 00:17:00;;;;;;;9.02;3.38;;;;;;;9.71;68.75;101076.53;5132854;27;20031;-80
2023/10/12 00:19:26;;;;;;;10.30;4.05;;;;;;;9.82;68.07;101060.03;5132223;27;20031;-81
2023/10/12 00:22:00;;;;;;;7.97;3.40;;;;;;;9.93;68.18;101072.88;5133840;27;20030;-82
2023/10/12 00:24:26;;;;;;;11.65;3.88;;;;;;;9.86;68.15;101040.00;5147999;27;20122;-82
2023/10/12 00:26:53;;;;;;;8.60;3.25;;;;;;;10.04;68.00;101034.22;5137778;27;20415;-81
2023/10/12 00:29:19;;;;;;;7.45;3.45;;;;;;;10.32;67.25;101044.09;5132176;27;20672;-81
2023/10/12 00:31:47;;;;;;;8.20;3.40;;;;;;;10.48;67.29;101080.34;5134903;27;20015;-81
2023/10/12 00:34:14;;;;;;;;;;;;;;;10.56;67.56;101070.38;5153073;27;20095;-81
2023/10/12 00:36:40;;;;;;;7.50;3.28;;;;;;;10.64;65.90;101038.22;5123935;27;20006;-81
2023/10/12 00:39:10;;;;;;;10.02;3.72;;;;;;;10.28;67.85;101065.00;5133301;27;20539;-81
2023/10/12 00:41:37;;;;;;;7.75;3.58;;;;;;;9.83;69.53;101067.03;5150975;27;20083;-81
2023/10/12 00:44:12;;;;;;;9.57;3.88;;;;;;;9.81;69.58;101043.25;5134817;27;20041;-81
2023/10/12 00:46:40;;;;;;;10.48;4.55;;;;;;;10.00;69.50;101068.41;5134459;27;20027;-81
2023/10/12 00:51:52;;;;;;;6.82;3.90;;;;;;;10.55;66.93;101058.03;5133334;27;20158;-81
2023/10/12 00:54:26;;;;;;;10.05;5.93;;;;;;;10.35;67.99;101065.88;5134123;27;20028;-81
2023/10/12 00:56:55;;;;;;;13.52;6.63;;;;;;;9.63;70.09;101030.34;5135148;27;20027;-81
2023/10/12 00:59:21;;;;;;;16.77;8.40;;;;;;;9.89;69.36;101044.97;5152799;27;20398;-81
2023/10/12 01:01:49;;;;;;;8.73;5.15;;;;;;;9.96;68.33;101027.19;5138107;27;20027;-80
2023/10/12 01:04:16;;;;;;;11.90;5.40;;;;;;;9.94;68.41;101031.06;5146269;27;20035;-81
2023/10/12 01:06:44;;;;;;;9.18;4.20;;;;;;;10.12;68.05;101051.94;5150307;27;20031;-81
2023/10/12 01:09:39;;;;;;;10.77;4.28;;;;;;;9.97;68.35;101036.84;5133942;27;20552;-80
2023/10/12 01:12:00;;;;;;;10.90;3.90;;;;;;;9.70;68.95;101030.41;5132898;27;20039;-81
2023/10/12 01:14:31;;;;;;;9.02;3.85;;;;;;;9.80;69.52;101043.41;5133084;27;20540;-81
2023/10/12 01:17:04;;;;;;;8.45;3.30;;;;;;;9.69;70.27;101034.09;5137214;27;20023;-82
2023/10/12 01:19:33;;;;;;;8.55;4.22;;;;;;;9.83;69.74;101024.41;5112880;28;20039;-83
2023/10/12 01:22:04;;;;;;;9.68;4.15;;;;;;;9.81;70.22;101058.41;5127430;27;20029;-82
2023/10/12 01:24:30;;;;;;;10.00;4.30;;;;;;;9.34;71.88;101020.59;5131728;27;20023;-83
2023/10/12 01:26:56;;;;;;;9.85;4.60;;;;;;;9.69;71.09;101035.94;5133646;27;20034;-81
2023/10/12 01:29:25;;;;;;;7.90;3.45;;;;;;;9.23;72.81;101037.91;5143840;27;20035;-80
2023/10/12 01:34:44;;;;;;;;;;;;;;;8.87;75.37;101056.44;5129940;27;20039;-81
2023/10/12 01:37:22;;;;;;;9.23;3.88;;;;;;;8.55;76.29;101054.94;5133632;27;19908;-82
2023/10/12 01:39:58;;;;;;;;;;;;;;;8.50;76.87;101052.00;5132997;27;20035;-81
2023/10/12 01:45:24;;;;;;;8.65;4.35;;;;;;;8.08;77.17;101042.72;5153118;27;20035;-81
2023/10/12 01:48:07;;;;;;;10.07;3.97;;;;;;;7.92;76.48;101031.19;5119929;27;20054;-80
2023/10/12 01:50:37;;;;;;;10.35;4.45;;;;;;;7.36;77.34;101041.19;5136270;27;20019;-85
2023/10/12 01:53:07;;;;;;;8.82;4.00;;;;;;;7.43;76.29;101064.19;5139824;27;20027;-81
2023/10/12 01:55:33;;;;;;;9.02;4.00;;;;;;;7.56;75.02;101041.56;5141814;27;20415;-81
2023/10/12 01:57:58;;;;;;;11.18;4.53;;;;;;;7.60;75.69;101048.16;5140497;27;20035;-82
2023/10/12 02:00:29;;;;;;;7.82;3.58;;;;;;;7.75;73.52;101029.69;5136603;27;20034;-82
2023/10/12 02:05:47;;;;;;;8.15;4.60;;;;;;;7.03;72.87;101036.03;5143289;27;20049;-81
2023/10/12 02:08:16;;;;;;;9.95;4.63;;;;;;;6.84;75.38;101032.78;5141026;27;20070;-82
2023/10/12 02:10:43;;;;;;;11.23;4.70;;;;;;;7.52;73.65;101045.56;5142430;27;20054;-82
2023/10/12 02:13:10;;;;;;;10.45;4.97;;;;;;;7.98;71.77;101025.16;5142781;27;20031;-82
2023/10/12 02:15:37;;;;;;;10.43;5.50;;;;;;;8.12;71.66;101036.03;5141578;27;20106;-81
2023/10/12 02:18:10;;;;;;;15.93;6.90;;;;;;;8.20;72.77;101022.69;5142718;27;20411;-81
2023/10/12 02:20:42;;;;;;;15.82;6.10;;;;;;;8.44;72.94;101049.06;5147596;27;20019;-82
2023/10/12 02:23:11;;;;;;;11.80;5.68;;;;;;;7.96;75.44;101040.47;5134901;27;20027;-80
2023/10/12 02:25:40;;;;;;;9.80;5.13;;;;;;;7.96;75.55;101037.81;5132259;27;20038;-80
2023/10/12 02:28:07;;;;;;;12.68;5.10;;;;;;;7.46;76.97;101041.81;5151541;27;20117;-82
2023/10/12 02:30:34;;;;;;;13.02;5.63;;;;;;;7.52;78.58;101046.41;5132857;27;20035;-81
2023/10/12 02:33:00;;;;;;;9.57;5.10;;;;;;;7.41;80.09;101062.72;5132659;27;20027;-80
2023/10/12 02:35:36;;;;;;;11.57;5.22;;;;;;;7.70;79.02;101061.22;5131292;27;20273;-80
2023/10/12 02:38:04;;;;;;;10.15;5.38;;;;;;;7.78;77.90;101039.94;5134743;27;20030;-80
2023/10/12 02:40:32;;;;;;;11.57;5.20;;;;;;;8.04;76.33;101045.72;5144535;27;20027;-82
2023/10/12 02:42:59;;;;;;;14.60;6.30;;;;;;;8.15;75.72;101055.13;5132452;27;20121;-80
2023/10/12 02:45:27;;;;;;;11.63;6.05;;;;;;;8.16;75.09;101032.00;5143021;27;20079;-80
2023/10/12 02:47:53;;;;;;;11.07;5.97;;;;;;;8.28;75.91;101059.81;5138074;27;20047;-83
2023/10/12 02:50:27;;;;;;;10.80;5.03;;;;;;;8.28;76.19;101049.19;5143635;27;20509;-81
2023/10/12 02:52:53;;;;;;;13.32;5.80;;;;;;;8.02;77.76;101026.47;5131857;27;20034;-81
2023/10/12 02:57:59;;;;;;;11.60;6.22;;;;;;;8.30;76.66;101027.75;5145550;27;20097;-81
2023/10/12 03:00:58;;;;;;;13.25;6.03;;;;;;;8.38;76.42;101052.41;5138034;27;20030;-80
2023/10/12 03:03:24;;;;;;;14.75;6.70;;;;;;;7.95;77.55;101025.53;5137681;27;20043;-81
2023/10/12 03:05:52;;;;;;;15.20;6.20;;;;;;;8.09;77.14;101041.69;5132690;27;20066;-81
2023/10/12 03:08:23;;;;;;;15.33;6.90;;;;;;;8.28;76.50;101040.41;5134265;27;20084;-83
2023/10/12 03:13:27;;;;;;;11.57;6.60;;;;;;;7.79;77.48;101023.81;5131684;27;20158;-80
2023/10/12 03:16:01;;;;;;;;;;;;;;;8.00;77.19;101038.28;5131181;27;20487;-81
2023/10/12 03:18:27;;;;;;;17.30;7.68;;;;;;;8.03;76.78;101033.44;5131666;27;19911;-81
2023/10/12 03:21:02;;;;;;;12.23;6.90;;;;;;;7.96;76.61;101018.38;5142267;27;20035;-80
2023/10/12 03:23:29;;;;;;;13.38;7.38;;;;;;;7.97;76.98;101039.47;5131426;28;20068;-80
2023/10/12 03:25:54;;;;;;;14.63;6.30;;;;;;;7.69;77.42;101036.50;5131654;27;20062;-81
2023/10/12 03:33:54;;;;;;;14.38;6.03;;;;;;;7.00;79.33;101055.75;5142731;27;20040;-80
2023/10/12 03:36:36;;;;;;;12.07;5.32;;;;;;;6.57;79.29;101033.16;5147507;27;20118;-80
2023/10/12 03:42:10;;;;;;;13.93;6.65;;;;;;;7.29;79.45;101029.59;5128785;27;20034;-81
2023/10/12 03:52:19;;;;;;;17.63;8.80;;;;;;;7.59;78.85;101020.81;5138129;27;20046;-80
2023/10/12 04:02:25;;;;;;;17.73;10.18;;;;;;;7.92;78.55;101031.19;5130403;27;20468;-81
2023/10/12 04:05:15;;;;;;;16.40;10.60;;;;;;;7.85;77.40;101011.69;5130827;27;20420;-81
2023/10/12 04:08:00;;;;;;;18.50;10.90;;;;;;;7.85;78.05;101024.97;5146241;27;20031;-81
2023/10/12 04:21:33;;;;;;;21.00;11.77;;;;;;;7.91;78.01;101034.88;5135700;27;20471;-79
2023/10/12 04:26:44;;;;;;;22.08;9.55;;;;;;;8.01;76.45;101024.81;5134628;27;20034;-82
2023/10/12 04:34:26;;;;;;;26.83;11.90;;;;;;;7.68;78.26;101026.06;5140279;27;20269;-83
2023/10/12 04:37:07;;;;;;;24.45;11.38;;;;;;;7.63;78.77;101038.03;5138297;27;20037;-80
2023/10/12 04:39:36;;;;;;;23.60;10.70;;;;;;;7.43;79.89;101027.03;5135702;27;20034;-81
2023/10/12 04:42:12;;;;;;;19.52;10.38;;;;;;;6.80;81.71;101047.38;5147491;27;20022;-80
2023/10/12 04:44:43;;;;;;;16.48;9.57;;;;;;;6.83;80.68;101035.59;5145282;27;20019;-80
2023/10/12 04:47:16;;;;;;;25.65;9.77;;;;;;;6.69;81.11;101034.47;5132825;27;20412;-81
2023/10/12 04:57:38;;;;;;;16.05;8.60;;;;;;;7.12;79.97;101032.34;5137927;27;20137;-84
2023/10/12 05:00:17;;;;;;;20.52;9.50;;;;;;;6.90;80.79;101020.63;5134669;27;20035;-80
2023/10/12 05:03:02;;;;;;;20.88;8.80;;;;;;;6.99;81.31;101038.19;5144848;27;20489;-80
2023/10/12 05:07:54;;;;;;;19.30;9.90;;;;;;;7.61;80.13;101045.34;5133581;27;20031;-83
2023/10/12 05:13:05;;;;;;;18.38;9.90;;;;;;;7.32;81.92;101050.50;5130863;27;20034;-82
2023/10/12 05:15:42;;;;;;;20.92;9.60;;;;;;;7.45;81.12;101035.63;5138490;27;20027;-81
2023/10/12 05:18:09;;;;;;;20.88;9.23;;;;;;;7.39;81.21;101041.66;5148957;27;20038;-81
2023/10/12 05:20:35;;;;;;;20.00;10.30;;;;;;;7.33;80.61;100989.28;5135855;27;20022;-81
2023/10/12 05:23:04;;;;;;;18.25;10.88;;;;;;;7.60;80.16;101056.97;5133131;27;20042;-81
2023/10/12 05:25:48;;;;;;;18.90;10.07;;;;;;;7.40;81.33;101058.41;5131169;27;20056;-83
2023/10/12 05:28:18;;;;;;;25.25;11.02;;;;;;;7.33;81.39;101049.47;5146060;27;20400;-84
2023/10/12 05:30:55;;;;;;;22.30;10.68;;;;;;;7.30;83.11;101057.81;5139785;27;20026;-81
2023/10/12 05:36:11;;;;;;;25.40;13.45;;;;;;;7.65;83.48;101057.25;5112302;27;20043;-82
2023/10/12 05:38:51;;;;;;;;;;;;;;;8.38;80.12;101057.72;5133138;27;20038;-80
2023/10/12 05:41:34;;;;;;;27.63;13.32;;;;;;;8.71;78.04;101057.44;5134393;27;20291;-83
2023/10/12 05:44:03;;;;;;;25.58;11.45;;;;;;;8.87;78.08;101023.69;5132590;27;20088;-83
2023/10/12 05:46:35;;;;;;;23.70;11.23;;;;;;;9.13;78.58;101057.81;5131653;27;20863;-83
2023/10/12 05:49:02;;;;;;;20.73;12.32;;;;;;;9.20;79.72;101066.72;5133162;27;20156;-83
2023/10/12 05:51:27;;;;;;;22.70;12.40;;;;;;;9.05;80.56;101037.44;5121420;27;20019;-84
2023/10/12 05:54:03;;;;;;;27.20;15.68;;;;;;;9.75;77.71;101045.84;5130859;27;20411;-83
2023/10/12 05:56:34;;;;;;;27.13;15.10;;;;;;;9.77;77.33;101036.63;5130528;27;20031;-82
2023/10/12 05:59:09;;;;;;;27.63;14.52;;;;;;;9.95;76.86;101078.84;5130651;27;20027;-81
2023/10/12 06:01:36;;;;;;;24.92;15.27;;;;;;;10.31;74.21;101059.28;5134143;27;20123;-83
2023/10/12 06:04:05;;;;;;;28.45;16.27;;;;;;;10.38;73.72;101060.19;5152276;27;20031;-83
2023/10/12 06:06:35;;;;;;;31.50;18.17;;;;;;;10.13;74.72;101064.22;5151971;27;20027;-84
2023/10/12 06:09:11;;;;;;;28.63;16.23;;;;;;;10.44;73.00;101063.91;5137958;27;20445;-83
2023/10/12 06:11:45;;;;;;;26.63;16.17;;;;;;;10.42;73.02;101061.44;5134091;27;20023;-84
2023/10/12 06:14:14;;;;;;;26.85;16.70;;;;;;;10.48;73.44;101051.81;5132323;27;20052;-83
2023/10/12 06:16:41;;;;;;;30.88;14.77;;;;;;;10.99;71.94;101066.72;5130561;27;20484;-83
2023/10/12 06:19:44;;;;;;;15.77;9.70;;;;;;;11.09;72.79;101072.53;5130755;27;20038;-83
2023/10/12 06:22:19;;;;;;;15.63;8.52;;;;;;;11.17;72.21;101060.88;5121760;27;20027;-84
2023/10/12 06:24:48;;;;;;;13.18;7.70;;;;;;;11.43;71.81;101069.00;5130668;27;20038;-82
2023/10/12 06:29:47;;;;;;;14.48;8.52;;;;;;;11.47;72.33;101085.44;5147452;27;20103;-83
2023/10/12 06:40:37;;;;;;;14.05;7.30;;;;;;;12.02;69.33;101064.03;5126062;27;20419;-86
2023/10/12 06:45:46;;;;;;;13.63;7.05;;;;;;;12.22;69.45;101078.25;5132154;27;19926;-82
2023/10/12 06:51:02;;;;;;;10.57;6.78;;;;;;;12.22;69.53;101048.00;5138463;27;20491;-85
2023/10/12 06:53:34;;;;;;;14.85;8.13;;;;;;;12.31;69.44;101054.78;5134228;27;20176;-84
2023/10/12 06:58:45;;;;;;;11.95;7.10;;;;;;;12.74;68.20;101074.94;5142419;27;20943;-83
2023/10/12 07:01:27;;;;;;;12.23;5.57;;;;;;;12.90;66.63;101068.31;5137821;27;20087;-82
2023/10/12 07:03:53;;;;;;;14.38;8.20;;;;;;;13.16;66.19;101078.97;5137357;27;20038;-83
2023/10/12 07:06:19;;;;;;;17.20;10.23;;;;;;;13.22;66.10;101082.66;5128882;27;20039;-85
2023/10/12 07:08:50;;;;;;;20.80;11.50;;;;;;;13.15;65.61;101050.50;5130954;27;20038;-83
2023/10/12 07:11:18;;;;;;;20.08;12.82;;;;;;;13.53;64.96;101068.53;5128174;27;20031;-84
2023/10/12 07:13:45;;;;;;;29.42;20.45;;;;;;;13.65;63.65;101058.78;5133200;27;20038;-83
2023/10/12 07:16:20;;;;;;;30.48;17.75;;;;;;;13.70;63.87;101054.63;5129318;27;20036;-83
2023/10/12 07:18:49;;;;;;;23.02;13.98;;;;;;;13.74;63.21;101074.59;5134221;27;20023;-82
2023/10/12 07:21:21;;;;;;;20.85;13.35;;;;;;;13.94;62.52;101080.66;5142768;27;20076;-84
2023/10/12 07:23:56;;;;;;;37.65;26.40;;;;;;;14.04;62.13;101064.94;5129677;28;20158;-83
2023/10/12 07:26:23;;;;;;;49.97;33.70;;;;;;;14.06;62.06;101068.22;5111630;28;20039;-85
2023/10/12 07:28:50;;;;;;;42.60;30.98;;;;;;;14.27;61.60;101080.44;5129602;27;20020;-83
2023/10/12 07:33:59;;;;;;;45.10;32.90;;;;;;;14.57;60.03;101052.16;5133801;27;20046;-82
2023/10/12 07:41:55;;;;;;;42.97;30.15;;;;;;;14.95;58.98;101078.00;5128882;27;20034;-83
2023/10/12 07:44:22;;;;;;;45.00;30.15;;;;;;;14.97;57.83;101038.28;5131915;27;20058;-85
2023/10/12 07:46:48;;;;;;;40.40;28.88;;;;;;;15.32;57.11;101053.78;5129247;27;20601;-84
2023/10/12 07:49:37;;;;;;;52.55;34.45;;;;;;;15.14;57.73;101052.78;5129408;27;20043;-82
2023/10/12 07:57:36;;;;;;;41.22;30.92;;;;;;;15.93;54.06;101060.84;5090296;28;20413;-83
2023/10/12 08:10:48;;;;;;;27.95;19.10;;;;;;;16.47;53.09;101041.97;5147142;27;20422;-81
2023/10/12 08:13:25;;;;;;;22.67;14.52;;;;;;;16.74;52.89;101050.38;5137513;27;20022;-85
2023/10/12 08:21:10;;;;;;;20.55;12.77;;;;;;;17.17;50.34;101032.19;5137909;27;20070;-83
2023/10/12 08:23:37;;;;;;;16.65;9.98;;;;;;;17.14;50.54;101022.72;5137611;27;20045;-84
2023/10/12 08:26:03;;;;;;;16.20;8.43;;;;;;;16.95;50.62;101003.16;5144390;27;20475;-83
2023/10/12 08:28:36;;;;;;;21.92;15.30;;;;;;;17.05;52.31;101030.31;5139640;27;20106;-83
2023/10/12 08:31:06;;;;;;;18.13;11.00;;;;;;;17.35;50.63;101017.72;5151857;27;20559;-84
2023/10/12 08:33:49;;;;;;;14.23;8.25;;;;;;;17.59;49.42;101026.50;5140345;27;20042;-84
2023/10/12 08:38:52;;;;;;;16.38;10.27;;;;;;;17.67;49.39;101016.16;5154953;27;20034;-83
2023/10/12 08:44:10;;;;;;;14.50;7.18;;;;;;;18.35;48.31;101020.75;5139253;27;20027;-83
2023/10/12 08:52:27;;;;;;;12.95;6.47;;;;;;;18.46;46.67;101000.94;5128829;27;20480;-83
2023/10/12 08:54:52;;;;;;;14.00;6.75;;;;;;;18.33;47.48;100969.72;5135151;27;20396;-82
2023/10/12 08:57:37;;;;;;;13.32;7.57;;;;;;;18.52;48.28;100999.16;5133626;27;20027;-83
2023/10/12 09:00:25;;;;;;;12.63;7.40;;;;;;;18.79;47.20;101000.06;5115260;27;20541;-83
2023/10/12 09:03:07;;;;;;;9.27;3.75;;;;;;;19.06;45.84;100988.50;5133494;27;20126;-84
2023/10/12 09:05:34;;;;;;;8.48;4.47;;;;;;;19.09;45.05;100984.50;5135680;27;20042;-83
2023/10/12 09:10:49;;;;;;;11.75;4.55;;;;;;;19.23;45.98;100983.84;5133630;27;20031;-84
2023/10/12 09:13:22;;;;;;;9.70;5.03;;;;;;;18.98;47.24;100978.13;5132078;27;20035;-85
2023/10/12 09:15:54;;;;;;;10.48;5.82;;;;;;;19.28;44.24;100956.84;5138403;27;20157;-84
2023/10/12 09:18:24;;;;;;;10.25;5.15;;;;;;;19.45;44.46;100967.56;5131404;27;20034;-83
2023/10/12 09:31:15;;;;;;;8.88;4.50;;;;;;;19.94;43.00;100950.41;5132907;27;20088;-83
2023/10/12 09:33:54;;;;;;;10.40;5.32;;;;;;;19.46;45.43;100938.63;5134719;27;20034;-84
2023/10/12 09:36:21;;;;;;;11.73;5.90;;;;;;;19.31;45.83;100892.47;5136420;27;20043;-83
2023/10/12 09:38:46;;;;;;;9.75;5.53;;;;;;;20.00;43.31;100922.31;5131358;27;20027;-84
2023/10/12 09:41:14;;;;;;;11.95;5.35;;;;;;;19.85;42.87;100909.47;5135722;27;20030;-87
2023/10/12 09:43:44;;;;;;;12.77;5.60;;;;;;;20.13;44.22;100920.22;5133485;27;20116;-83
2023/10/12 09:46:13;;;;;;;9.75;5.68;;;;;;;20.71;41.71;100912.91;5135362;27;20610;-85
2023/10/12 09:48:44;;;;;;;13.00;6.57;;;;;;;21.06;41.53;100911.38;5129689;27;20039;-84
2023/10/12 09:51:20;;;;;;;11.15;6.20;;;;;;;21.20;40.95;100903.53;5136284;27;20485;-84
2023/10/12 09:53:58;;;;;;;9.98;6.30;;;;;;;21.45;40.53;100910.91;5150826;27;20873;-84
2023/10/12 09:56:33;;;;;;;12.02;6.80;;;;;;;21.17;40.86;100907.63;5149526;27;20109;-84
2023/10/12 09:59:13;;;;;;;10.95;6.00;;;;;;;21.59;40.96;100878.63;5146699;27;20027;-83
2023/10/12 10:09:41;;;;;;;12.30;6.07;;;;;;;21.79;39.72;100870.44;5132696;27;20060;-84
2023/10/12 10:12:07;;;;;;;;;;;;;;;22.02;39.04;100869.03;5131235;27;20035;-84
2023/10/12 10:14:35;;;;;;;11.52;6.90;;;;;;;22.32;38.00;100861.91;5132068;27;19915;-83
2023/10/12 10:17:01;;;;;;;11.52;6.05;;;;;;;22.37;38.84;100861.91;5134200;27;20439;-84
2023/10/12 10:19:30;;;;;;;8.13;4.97;;;;;;;22.52;37.37;100871.09;5131608;27;20066;-85
2023/10/12 10:22:11;;;;;;;11.05;5.68;;;;;;;22.29;38.65;100859.75;5131655;27;20030;-87
2023/10/12 10:24:36;;;;;;;8.25;5.25;;;;;;;22.56;36.90;100855.84;5133750;27;20027;-83
2023/10/12 10:27:15;;;;;;;10.50;5.40;;;;;;;23.07;36.39;100855.56;5147095;27;20076;-84
2023/10/12 10:29:53;;;;;;;9.48;4.47;;;;;;;22.54;36.22;100831.66;5143526;27;20321;-83
2023/10/12 10:32:22;;;;;;;9.98;4.95;;;;;;;22.33;36.85;100839.09;5141632;27;20034;-83
2023/10/12 10:34:47;;;;;;;10.45;4.95;;;;;;;22.48;36.57;100837.41;5136958;27;20481;-82
2023/10/12 10:37:59;;;;;;;9.20;5.47;;;;;;;22.31;37.62;100835.81;5142447;27;20078;-83
2023/10/12 10:40:45;;;;;;;9.02;5.15;;;;;;;22.17;37.66;100837.47;5131917;27;20110;-84
2023/10/12 10:43:15;;;;;;;11.27;5.57;;;;;;;22.19;37.44;100819.00;5131490;27;20023;-84
2023/10/12 10:45:56;;;;;;;8.65;5.32;;;;;;;22.91;36.60;100816.72;5145519;27;20265;-83
2023/10/12 10:48:22;;;;;;;11.80;5.85;;;;;;;23.07;36.45;100831.06;5129871;27;20043;-82
2023/10/12 10:50:51;;;;;;;11.80;5.25;;;;;;;23.02;35.82;100782.13;5131826;27;20075;-84
2023/10/12 10:53:20;;;;;;;10.52;4.75;;;;;;;23.95;34.89;100796.47;5145988;27;20095;-84
2023/10/12 10:55:50;;;;;;;7.63;5.47;;;;;;;24.21;33.81;100801.59;5128188;27;20080;-84
2023/10/12 10:58:17;;;;;;;7.53;4.05;;;;;;;24.20;34.00;100789.88;5131897;27;20031;-83
2023/10/12 11:00:46;;;;;;;8.15;4.28;;;;;;;23.55;34.66;100778.66;5131069;27;20041;-84
2023/10/12 11:03:18;;;;;;;8.77;4.63;;;;;;;23.33;34.95;100770.97;5134623;27;20027;-84
2023/10/12 11:05:46;;;;;;;10.32;4.25;;;;;;;23.21;34.95;100779.50;5132250;27;20091;-84
2023/10/12 11:08:26;;;;;;;8.63;4.45;;;;;;;23.53;34.47;100759.88;5130661;27;20043;-83
2023/10/12 11:13:44;;;;;;;9.88;4.53;;;;;;;24.36;33.40;100759.72;5130578;27;20028;-85
2023/10/12 11:16:28;;;;;;;11.25;6.32;;;;;;;24.88;32.53;100763.28;5134657;27;20110;-84
2023/10/12 11:18:55;;;;;;;9.02;4.53;;;;;;;24.06;33.08;100767.97;5129601;27;20138;-83
2023/10/12 11:21:21;;;;;;;5.43;3.50;;;;;;;24.41;33.53;100765.06;5129284;27;20023;-85
2023/10/12 11:23:50;;;;;;;7.47;3.42;;;;;;;24.17;33.68;100759.69;5129590;27;20096;-84
2023/10/12 11:26:20;;;;;;;6.60;3.20;;;;;;;24.16;33.67;100736.28;5146995;27;20030;-84
2023/10/12 11:29:00;;;;;;;8.50;3.72;;;;;;;24.79;32.63;100727.69;5129588;28;20127;-83
2023/10/12 11:31:31;;;;;;;7.03;3.65;;;;;;;25.09;32.50;100739.22;5130228;27;20463;-83
2023/10/12 11:33:58;;;;;;;9.10;3.13;;;;;;;24.36;33.33;100727.00;5150015;27;20053;-82
2023/10/12 11:36:24;;;;;;;7.75;3.13;;;;;;;25.15;32.34;100742.63;5151537;27;20479;-82
2023/10/12 11:39:21;;;;;;;5.22;2.63;;;;;;;23.81;33.15;100746.53;5134298;27;20027;-82
2023/10/12 11:42:12;;;;;;;7.17;2.93;;;;;;;24.62;32.88;100730.16;5122749;27;20387;-82
2023/10/12 11:44:43;;;;;;;8.30;3.10;;;;;;;25.18;31.43;100721.03;5133828;27;20031;-82
2023/10/12 11:47:29;;;;;;;6.93;3.50;;;;;;;25.43;31.46;100746.25;5133776;27;20026;-83
2023/10/12 11:49:58;;;;;;;8.45;3.30;;;;;;;25.49;31.36;100709.53;5134168;27;20051;-84
2023/10/12 11:52:33;;;;;;;6.50;2.95;;;;;;;25.79;30.64;100729.16;5133718;27;20027;-83
2023/10/12 11:55:18;;;;;;;6.03;2.80;;;;;;;25.84;30.90;100732.59;5134355;27;20078;-82
2023/10/12 11:57:45;;;;;;;9.05;3.00;;;;;;;25.72;30.57;100712.38;5146323;27;20072;-84
2023/10/12 12:00:29;;;;;;;4.50;2.30;;;;;;;26.03;30.56;100707.91;5136817;27;20104;-83
2023/10/12 12:02:59;;;;;;;5.60;2.35;;;;;;;26.22;29.85;100715.16;5134795;27;20023;-83
2023/10/12 12:05:33;;;;;;;6.70;2.67;;;;;;;26.48;30.47;100706.31;5139212;27;20046;-83
2023/10/12 12:08:06;;;;;;;4.82;2.45;;;;;;;26.16;30.86;100708.19;5144762;27;20027;-84
2023/10/12 12:10:40;;;;;;;7.28;2.38;;;;;;;26.15;30.11;100706.53;5134036;27;20170;-84
2023/10/12 12:13:09;;;;;;;10.35;3.03;;;;;;;25.99;30.29;100693.25;5136980;27;20461;-81
2023/10/12 12:15:35;;;;;;;4.97;2.30;;;;;;;26.24;30.36;100701.97;5134217;27;20028;-83
2023/10/12 12:18:09;;;;;;;5.95;2.65;;;;;;;26.25;30.24;100698.13;5142733;27;21033;-84
2023/10/12 12:20:39;;;;;;;5.43;2.50;;;;;;;26.50;29.36;100684.94;5135904;27;20114;-83
2023/10/12 12:23:05;;;;;;;9.02;2.95;;;;;;;26.37;29.85;100679.22;5133500;27;20042;-83
2023/10/12 12:25:34;;;;;;;8.25;2.78;;;;;;;25.67;30.94;100680.50;5138861;27;20037;-84
2023/10/12 12:28:02;;;;;;;6.32;2.60;;;;;;;25.53;31.57;100666.88;5146802;27;20027;-83
2023/10/12 12:30:35;;;;;;;7.68;2.50;;;;;;;25.49;31.00;100652.19;5133284;27;20031;-84
2023/10/12 12:33:08;;;;;;;5.15;2.45;;;;;;;25.76;31.39;100659.53;5132859;27;20030;-84
2023/10/12 12:35:36;;;;;;;5.85;2.90;;;;;;;25.69;31.15;100658.38;5134242;27;20484;-83
2023/10/12 12:38:04;;;;;;;5.85;2.72;;;;;;;25.47;31.04;100668.09;5137826;27;20477;-86
2023/10/12 12:40:31;;;;;;;6.70;2.47;;;;;;;26.06;30.09;100655.34;5134291;27;20039;-82
2023/10/12 12:42:57;;;;;;;6.57;2.88;;;;;;;25.33;30.95;100653.63;5132887;27;20023;-83
2023/10/12 12:45:23;;;;;;;5.53;2.50;;;;;;;25.77;30.28;100657.63;5132809;27;20092;-83
2023/10/12 12:47:48;;;;;;;6.07;2.78;;;;;;;26.42;29.88;100632.63;5132483;27;20039;-83
2023/10/12 12:50:13;;;;;;;4.32;2.58;;;;;;;26.66;28.52;100636.97;5134061;27;20118;-83
2023/10/12 12:52:46;;;;;;;8.88;2.90;;;;;;;27.06;29.13;100650.69;5133592;27;20031;-81
2023/10/12 12:55:16;;;;;;;6.22;3.17;;;;;;;26.70;29.58;100634.44;5138250;27;20030;-83
2023/10/12 12:57:45;;;;;;;12.95;8.02;;;;;;;26.89;28.90;100640.50;5137713;27;20027;-81
2023/10/12 13:00:19;;;;;;;9.75;2.70;;;;;;;26.97;28.85;100630.69;5143948;27;20034;-82
2023/10/12 13:02:46;;;;;;;6.88;2.88;;;;;;;26.08;29.91;100632.38;5132566;27;20456;-82
2023/10/12 13:05:11;;;;;;;6.93;2.67;;;;;;;26.25;29.14;100611.47;5132348;27;20452;-82
2023/10/12 13:07:38;;;;;;;6.25;3.03;;;;;;;27.76;27.28;100623.50;5133101;27;20058;-84
2023/10/12 13:10:06;;;;;;;9.32;2.95;;;;;;;28.18;26.80;100624.69;5152699;27;20411;-82
2023/10/12 13:12:32;;;;;;;6.63;2.40;;;;;;;27.46;27.44;100612.34;5152679;27;20033;-83
2023/10/12 13:15:01;;;;;;;6.15;2.97;;;;;;;27.94;28.79;100597.75;5136808;27;20817;-82
2023/10/12 13:17:30;;;;;;;4.63;2.38;;;;;;;29.49;25.95;100620.72;5133177;27;20464;-82
2023/10/12 13:19:58;;;;;;;4.30;2.40;;;;;;;29.09;25.73;100608.13;5133074;27;20019;-83
2023/10/12 13:22:25;;;;;;;6.40;2.63;;;;;;;28.61;25.73;100606.56;5131772;27;20023;-82
2023/10/12 13:24:56;;;;;;;5.03;2.45;;;;;;;29.55;26.67;100589.94;5133422;27;20030;-85
2023/10/12 13:27:23;;;;;;;8.85;2.63;;;;;;;29.43;25.17;100626.38;5134952;27;20035;-83
2023/10/12 13:29:50;;;;;;;5.10;2.47;;;;;;;30.90;23.57;100610.88;5132739;27;20051;-87
2023/10/12 13:32:18;;;;;;;6.22;2.40;;;;;;;31.00;23.28;100597.44;5133429;27;20027;-83
2023/10/12 13:34:44;;;;;;;7.72;2.72;;;;;;;31.29;22.91;100592.84;5137426;27;20480;-82
2023/10/12 13:37:09;;;;;;;6.53;2.80;;;;;;;31.30;22.83;100590.88;5133055;27;20079;-83
2023/10/12 13:39:35;;;;;;;8.75;3.40;;;;;;;32.40;22.31;100598.81;5137296;27;20031;-82
2023/10/12 13:42:00;;;;;;;9.55;3.25;;;;;;;33.53;22.16;100608.66;5154166;27;20034;-82
2023/10/12 13:44:26;;;;;;;7.38;2.65;;;;;;;33.13;21.04;100591.19;5147980;27;20027;-82
2023/10/12 13:46:52;;;;;;;5.10;2.90;;;;;;;32.77;20.97;100584.78;5143451;27;20175;-86
2023/10/12 13:49:20;;;;;;;9.13;3.65;;;;;;;32.36;21.32;100586.88;5133122;27;20058;-86
2023/10/12 13:51:47;;;;;;;6.60;4.15;;;;;;;32.76;21.48;100576.88;5133054;27;20019;-84
2023/10/12 13:54:14;;;;;;;15.00;7.88;;;;;;;33.71;20.33;100582.19;5131466;27;20054;-84
2023/10/12 13:56:48;;;;;;;8.00;2.40;;;;;;;33.79;20.14;100591.44;5115393;27;20146;-86
2023/10/12 13:59:14;;;;;;;6.70;2.70;;;;;;;33.89;19.67;100592.84;5132183;27;20400;-84
2023/10/12 14:01:40;;;;;;;26.38;22.88;;;;;;;33.89;19.64;100554.91;5133232;27;20027;-84
2023/10/12 14:04:28;;;;;;;12.70;6.43;;;;;;;34.92;18.88;100582.03;5133741;27;20035;-84
2023/10/12 14:07:00;;;;;;;7.05;3.08;;;;;;;34.00;19.85;100589.13;5137865;27;20019;-84
2023/10/12 14:09:27;;;;;;;6.35;2.30;;;;;;;33.90;19.70;100584.19;5153104;27;20048;-83
2023/10/12 14:11:54;;;;;;;8.80;2.55;;;;;;;34.02;19.70;100575.72;5153019;27;20022;-84
2023/10/12 14:14:19;;;;;;;10.23;4.27;;;;;;;35.08;19.07;100535.56;5153741;27;20042;-85
2023/10/12 14:16:47;;;;;;;7.38;2.92;;;;;;;33.69;20.00;100567.13;5133946;27;20268;-84
2023/10/12 14:19:16;;;;;;;5.22;2.40;;;;;;;33.09;20.25;100559.13;5139279;27;20019;-85
2023/10/12 14:21:42;;;;;;;8.75;3.25;;;;;;;33.38;20.21;100552.25;5136910;27;20547;-84